WetterOnline ( https://www.wetteronline.de )

Wetter aktuell Oberwiesenthal

Aktuelles Wetter: Fichtelberg (1215m)

6-stündlich | Neueste Meldungen
Ortszeit Temperatur Wetter
Mi, 22.05. 20:00 8.9° C Nebel
Mi, 22.05. 14:00 9.0° C Nebel
Mi, 22.05. 8:00 8.6° C Regen
Mi, 22.05. 2:00 12.0° C Nebel
Di, 21.05. 20:00 11.5° C leichter Regen
Di, 21.05. 14:00 12.3° C leichter Regen
Di, 21.05. 8:00 10.2° C Nebel
Di, 21.05. 2:00 9.7° C wolkig
Ortszeit Temperatur Wetter
Mi, 22.05. 23:30 8.2° C Sprühregen
Mi, 22.05. 23:20 8.2° C Sprühregen
Mi, 22.05. 23:10 8.3° C leichter Regen
Mi, 22.05. 23:00 8.5° C leichter Regen
Mi, 22.05. 22:50 8.5° C leichter Regen
Mi, 22.05. 22:40 8.5° C leichter Regen
Mi, 22.05. 22:30 8.4° C Nebel
Mi, 22.05. 22:00 8.4° C Nebel
Mi, 22.05. 21:30 8.4° C Nebel
Mi, 22.05. 21:00 8.6° C Nebel
Mi, 22.05. 20:30 8.8° C Nebel
Ortszeit Relative Feuchte Sichtweite
Mi, 22.05. 20:00 100% 0.2 km
Mi, 22.05. 14:00 100% 100 m
Mi, 22.05. 8:00 100% 100 m
Mi, 22.05. 2:00 100% <100 m
Di, 21.05. 20:00 100% <100 m
Di, 21.05. 14:00 99% <100 m
Di, 21.05. 8:00 99% 1.2 km
Di, 21.05. 2:00 93% 27 km
Ortszeit Relative Feuchte Sichtweite
Mi, 22.05. 23:30 100% 100 m
Mi, 22.05. 23:20 100% -
Mi, 22.05. 23:10 99% -
Mi, 22.05. 23:00 100% <100 m
Mi, 22.05. 22:50 100% -
Mi, 22.05. 22:40 100% -
Mi, 22.05. 22:30 99% 100 m
Mi, 22.05. 22:00 100% <100 m
Mi, 22.05. 21:30 99% <100 m
Mi, 22.05. 21:00 99% <100 m
Mi, 22.05. 20:30 99% 100 m
Ortszeit Niederschlagsmenge Niederschlagsart
Mi, 22.05. 20:00 6 l/m2 in 12 Std. Regen
Mi, 22.05. 14:00 6 l/m2 in 6 Std. Regen
Mi, 22.05. 8:00 36 l/m2 in 12 Std. Regenschauer
Mi, 22.05. 2:00 3 l/m2 in 6 Std. Regen
Di, 21.05. 20:00 9 l/m2 in 12 Std. Regen
Di, 21.05. 14:00 4 l/m2 in 6 Std. Regenschauer
Di, 21.05. 8:00 0.0 l/m2 in 12 Std. -
Di, 21.05. 2:00 0.0 l/m2 in 6 Std. -
Ortszeit Niederschlagsmenge Niederschlagsart
Mi, 22.05. 23:30 0.3 l/m2 in 30 Min -
Mi, 22.05. 23:20 keine Meldung -
Mi, 22.05. 23:10 keine Meldung -
Mi, 22.05. 23:00 <0.05 l/m2 in 1 Std. Regen
Mi, 22.05. 22:50 keine Meldung -
Mi, 22.05. 22:40 keine Meldung -
Mi, 22.05. 22:30 0.0 l/m2 in 30 Min -
Mi, 22.05. 22:00 0.0 l/m2 in 1 Std. -
Mi, 22.05. 21:30 0.0 l/m2 in 30 Min -
Mi, 22.05. 21:00 0.0 l/m2 in 1 Std. -
Mi, 22.05. 20:30 0.0 l/m2 in 30 Min -
Ortszeit Stärke Spitze Richtung
km/h Bft. km/h Grad Sektor
Mi, 22.05. 20:00 30 5 65 290° W
Mi, 22.05. 14:00 41 6 80 270° W
Mi, 22.05. 8:00 50 7 68 280° W
Mi, 22.05. 2:00 22 4 83 140° SO
Di, 21.05. 20:00 52 7 91 110° O
Di, 21.05. 14:00 47 6 76 110° O
Di, 21.05. 8:00 37 5 57 110° O
Di, 21.05. 2:00 31 5 44 120° SO
Ortszeit Stärke Spitze Richtung
km/h Bft. km/h Grad Sektor
Mi, 22.05. 23:30 36 5 50 290° W
Mi, 22.05. 23:20 36 5 - 290° W
Mi, 22.05. 23:10 35 5 - 280° W
Mi, 22.05. 23:00 26 4 33 270° W
Mi, 22.05. 22:50 26 4 - 270° W
Mi, 22.05. 22:40 25 4 - 270° W
Mi, 22.05. 22:30 22 4 28 290° W
Mi, 22.05. 22:00 25 4 32 280° W
Mi, 22.05. 21:30 22 4 32 280° W
Mi, 22.05. 21:00 25 4 36 290° W
Mi, 22.05. 20:30 28 4 37 290° W
Ortszeit Untergrenze Bedeckung Gattung
total tief tief mittel hoch
Mi, 22.05. 20:00 <30 m 7/8 0/8 - - -
Mi, 22.05. 14:00 <30 m 7/8 0/8 - - -
Mi, 22.05. 8:00 <30 m 8/8 0/8 - - -
Mi, 22.05. 2:00 <30 m 8/8 0/8 - - -
Di, 21.05. 20:00 <30 m 8/8 0/8 - - -
Di, 21.05. 14:00 30 m 8/8 8/8 - - -
Di, 21.05. 8:00 <30 m 8/8 0/8 - - -
Di, 21.05. 2:00 7200 m 8/8 0/8 - - -
Ortszeit Bedeckungsgrad in Achtel und Wolkenuntergrenze
Mi, 22.05. 23:30 8(<30m)
Mi, 22.05. 23:20 8(<30m)
Mi, 22.05. 23:10 8
Mi, 22.05. 23:00 8(<30m)
Mi, 22.05. 22:50 8(<30m)
Mi, 22.05. 22:40 7
Mi, 22.05. 22:30 7(<30m) 7(960m)
Mi, 22.05. 22:00 8(<30m)
Mi, 22.05. 21:30 8(<30m)
Mi, 22.05. 21:00 8(<30m)
Mi, 22.05. 20:30 7(<30m)
Ortszeit Stationsdruck (hPa) Tendenz (hPa in 3 Std.)
Mi, 22.05. 20:00 876 + 1,0
Mi, 22.05. 14:00 874 + 1,7
Mi, 22.05. 8:00 870 - 0,2
Mi, 22.05. 2:00 871 0,0
Di, 21.05. 20:00 871 - 0,4
Di, 21.05. 14:00 873 - 1,2
Di, 21.05. 8:00 874 - 0,4
Di, 21.05. 2:00 876 - 0,6
Ortszeit Stationsdruck (hPa) Tendenz (hPa in 3 Std.)
Mi, 22.05. 23:30 877 + 1,3
Mi, 22.05. 23:20 877 keine Meldung
Mi, 22.05. 23:10 877 keine Meldung
Mi, 22.05. 23:00 877 + 1,5
Mi, 22.05. 22:50 877 keine Meldung
Mi, 22.05. 22:40 877 keine Meldung
Mi, 22.05. 22:30 877 + 1,5
Mi, 22.05. 22:00 877 + 1,4
Mi, 22.05. 21:30 876 + 1,2
Mi, 22.05. 21:00 876 + 1,3
Mi, 22.05. 20:30 876 + 1,1
Ortszeit Schneehöhe (cm)
Mi, 22.05. 20:00 0
Mi, 22.05. 14:00 0
Mi, 22.05. 8:00 0
Mi, 22.05. 2:00 0
Di, 21.05. 20:00 0
Di, 21.05. 14:00 0
Di, 21.05. 8:00 0
Di, 21.05. 2:00 0
Ortszeit Schneehöhe (cm)
Mi, 22.05. 23:30 0
Mi, 22.05. 23:20 0
Mi, 22.05. 23:10 -
Mi, 22.05. 23:00 0
Mi, 22.05. 22:50 0
Mi, 22.05. 22:40 -
Mi, 22.05. 22:30 0
Mi, 22.05. 22:00 0
Mi, 22.05. 21:30 0
Mi, 22.05. 21:00 0
Mi, 22.05. 20:30 0
Link zu dieser Seite / Seite empfehlen

Das Wetter in ...